sensor_id;sensor_type;location;lat;lon;timestamp;P1;durP1;ratioP1;P2;durP2;ratioP2
39994;SDS011;25686;51.908;10.418;2023-05-07T00:00:27;64.28;;;36.13;;
39994;SDS011;25686;51.908;10.418;2023-05-07T00:02:28;63.22;;;36.90;;
39994;SDS011;25686;51.908;10.418;2023-05-07T00:04:29;57.80;;;36.00;;
39994;SDS011;25686;51.908;10.418;2023-05-07T00:06:36;60.72;;;35.33;;
39994;SDS011;25686;51.908;10.418;2023-05-07T00:08:37;59.20;;;37.00;;
39994;SDS011;25686;51.908;10.418;2023-05-07T00:10:38;57.17;;;35.95;;
39994;SDS011;25686;51.908;10.418;2023-05-07T00:12:39;62.53;;;36.78;;
39994;SDS011;25686;51.908;10.418;2023-05-07T00:14:40;64.55;;;38.53;;
39994;SDS011;25686;51.908;10.418;2023-05-07T00:16:41;60.88;;;37.05;;
39994;SDS011;25686;51.908;10.418;2023-05-07T00:18:42;64.10;;;36.35;;
39994;SDS011;25686;51.908;10.418;2023-05-07T00:20:43;67.40;;;38.45;;
39994;SDS011;25686;51.908;10.418;2023-05-07T00:22:44;66.65;;;38.72;;
39994;SDS011;25686;51.908;10.418;2023-05-07T00:24:45;62.28;;;37.67;;
39994;SDS011;25686;51.908;10.418;2023-05-07T00:26:46;63.28;;;37.17;;
39994;SDS011;25686;51.908;10.418;2023-05-07T00:28:47;69.13;;;37.75;;
39994;SDS011;25686;51.908;10.418;2023-05-07T00:30:48;67.93;;;37.60;;
39994;SDS011;25686;51.908;10.418;2023-05-07T00:32:49;64.43;;;37.72;;
39994;SDS011;25686;51.908;10.418;2023-05-07T00:34:50;64.40;;;36.35;;
39994;SDS011;25686;51.908;10.418;2023-05-07T00:36:51;61.33;;;34.83;;
39994;SDS011;25686;51.908;10.418;2023-05-07T00:38:53;59.85;;;34.90;;
39994;SDS011;25686;51.908;10.418;2023-05-07T00:40:55;58.00;;;34.38;;
39994;SDS011;25686;51.908;10.418;2023-05-07T00:42:56;63.10;;;35.58;;
39994;SDS011;25686;51.908;10.418;2023-05-07T00:44:58;63.13;;;36.22;;
39994;SDS011;25686;51.908;10.418;2023-05-07T00:46:59;58.05;;;34.10;;
39994;SDS011;25686;51.908;10.418;2023-05-07T00:49:02;58.40;;;33.80;;
39994;SDS011;25686;51.908;10.418;2023-05-07T00:51:03;56.08;;;34.20;;
39994;SDS011;25686;51.908;10.418;2023-05-07T00:53:04;60.90;;;35.00;;
39994;SDS011;25686;51.908;10.418;2023-05-07T00:55:06;57.30;;;35.72;;
39994;SDS011;25686;51.908;10.418;2023-05-07T00:57:07;59.65;;;34.05;;
39994;SDS011;25686;51.908;10.418;2023-05-07T00:59:09;60.22;;;35.05;;
39994;SDS011;25686;51.908;10.418;2023-05-07T01:01:11;58.35;;;34.28;;
39994;SDS011;25686;51.908;10.418;2023-05-07T01:03:12;60.22;;;34.45;;
39994;SDS011;25686;51.908;10.418;2023-05-07T01:05:14;61.25;;;34.00;;
39994;SDS011;25686;51.908;10.418;2023-05-07T01:07:16;58.53;;;34.05;;
39994;SDS011;25686;51.908;10.418;2023-05-07T01:09:17;60.80;;;34.00;;
39994;SDS011;25686;51.908;10.418;2023-05-07T01:11:19;55.10;;;32.30;;
39994;SDS011;25686;51.908;10.418;2023-05-07T01:13:21;55.30;;;33.17;;
39994;SDS011;25686;51.908;10.418;2023-05-07T01:15:22;55.38;;;33.90;;
39994;SDS011;25686;51.908;10.418;2023-05-07T01:17:23;53.90;;;31.63;;
39994;SDS011;25686;51.908;10.418;2023-05-07T01:19:24;52.58;;;30.58;;
39994;SDS011;25686;51.908;10.418;2023-05-07T01:21:27;54.28;;;32.05;;
39994;SDS011;25686;51.908;10.418;2023-05-07T01:23:31;52.22;;;31.58;;
39994;SDS011;25686;51.908;10.418;2023-05-07T01:25:33;51.95;;;31.02;;
39994;SDS011;25686;51.908;10.418;2023-05-07T01:27:35;56.63;;;30.85;;
39994;SDS011;25686;51.908;10.418;2023-05-07T01:29:37;54.78;;;30.98;;
39994;SDS011;25686;51.908;10.418;2023-05-07T01:31:38;56.08;;;32.40;;
39994;SDS011;25686;51.908;10.418;2023-05-07T01:33:40;52.58;;;30.00;;
39994;SDS011;25686;51.908;10.418;2023-05-07T01:35:45;54.08;;;31.58;;
39994;SDS011;25686;51.908;10.418;2023-05-07T01:37:46;50.10;;;30.38;;
39994;SDS011;25686;51.908;10.418;2023-05-07T01:39:48;53.67;;;30.50;;
39994;SDS011;25686;51.908;10.418;2023-05-07T01:41:49;56.70;;;31.38;;
39994;SDS011;25686;51.908;10.418;2023-05-07T01:43:50;48.35;;;29.35;;
39994;SDS011;25686;51.908;10.418;2023-05-07T01:45:52;52.83;;;30.95;;
39994;SDS011;25686;51.908;10.418;2023-05-07T01:47:53;51.78;;;30.90;;
39994;SDS011;25686;51.908;10.418;2023-05-07T01:49:54;50.83;;;29.52;;
39994;SDS011;25686;51.908;10.418;2023-05-07T01:51:55;52.40;;;30.23;;
39994;SDS011;25686;51.908;10.418;2023-05-07T01:53:56;48.47;;;29.08;;
39994;SDS011;25686;51.908;10.418;2023-05-07T01:55:57;47.70;;;29.13;;
39994;SDS011;25686;51.908;10.418;2023-05-07T01:57:58;47.45;;;27.85;;
39994;SDS011;25686;51.908;10.418;2023-05-07T01:59:59;43.97;;;25.92;;
39994;SDS011;25686;51.908;10.418;2023-05-07T02:02:01;45.00;;;25.85;;
39994;SDS011;25686;51.908;10.418;2023-05-07T02:04:02;42.40;;;25.27;;
39994;SDS011;25686;51.908;10.418;2023-05-07T02:06:03;42.78;;;24.73;;
39994;SDS011;25686;51.908;10.418;2023-05-07T02:08:04;35.67;;;22.40;;
39994;SDS011;25686;51.908;10.418;2023-05-07T02:10:05;39.03;;;23.38;;
39994;SDS011;25686;51.908;10.418;2023-05-07T02:12:06;34.60;;;22.60;;
39994;SDS011;25686;51.908;10.418;2023-05-07T02:14:07;33.70;;;21.13;;
39994;SDS011;25686;51.908;10.418;2023-05-07T02:16:08;33.70;;;21.23;;
39994;SDS011;25686;51.908;10.418;2023-05-07T02:18:09;34.35;;;21.23;;
39994;SDS011;25686;51.908;10.418;2023-05-07T02:20:10;32.53;;;21.23;;
39994;SDS011;25686;51.908;10.418;2023-05-07T02:22:13;35.38;;;20.45;;
39994;SDS011;25686;51.908;10.418;2023-05-07T02:24:14;33.75;;;20.35;;
39994;SDS011;25686;51.908;10.418;2023-05-07T02:26:15;32.80;;;20.38;;
39994;SDS011;25686;51.908;10.418;2023-05-07T02:28:16;32.45;;;20.67;;
39994;SDS011;25686;51.908;10.418;2023-05-07T02:30:17;31.42;;;20.27;;
39994;SDS011;25686;51.908;10.418;2023-05-07T02:32:18;30.98;;;19.83;;
39994;SDS011;25686;51.908;10.418;2023-05-07T02:34:19;32.25;;;18.73;;
39994;SDS011;25686;51.908;10.418;2023-05-07T02:36:20;30.90;;;19.95;;
39994;SDS011;25686;51.908;10.418;2023-05-07T02:38:22;32.97;;;19.70;;
39994;SDS011;25686;51.908;10.418;2023-05-07T02:40:23;33.70;;;21.13;;
39994;SDS011;25686;51.908;10.418;2023-05-07T02:42:24;32.75;;;20.20;;
39994;SDS011;25686;51.908;10.418;2023-05-07T02:44:25;31.63;;;20.70;;
39994;SDS011;25686;51.908;10.418;2023-05-07T02:46:26;30.70;;;19.83;;
39994;SDS011;25686;51.908;10.418;2023-05-07T02:48:27;32.33;;;19.85;;
39994;SDS011;25686;51.908;10.418;2023-05-07T02:50:28;31.17;;;20.15;;
39994;SDS011;25686;51.908;10.418;2023-05-07T02:52:29;35.05;;;21.88;;
39994;SDS011;25686;51.908;10.418;2023-05-07T02:54:30;33.00;;;20.77;;
39994;SDS011;25686;51.908;10.418;2023-05-07T02:56:31;31.77;;;20.15;;
39994;SDS011;25686;51.908;10.418;2023-05-07T02:58:32;33.28;;;20.75;;
39994;SDS011;25686;51.908;10.418;2023-05-07T03:00:33;33.75;;;20.80;;
39994;SDS011;25686;51.908;10.418;2023-05-07T03:02:34;33.58;;;21.25;;
39994;SDS011;25686;51.908;10.418;2023-05-07T03:04:35;33.80;;;20.80;;
39994;SDS011;25686;51.908;10.418;2023-05-07T03:06:36;32.97;;;20.33;;
39994;SDS011;25686;51.908;10.418;2023-05-07T03:08:37;34.72;;;20.85;;
39994;SDS011;25686;51.908;10.418;2023-05-07T03:10:38;33.67;;;21.27;;
39994;SDS011;25686;51.908;10.418;2023-05-07T03:12:39;31.52;;;19.15;;
39994;SDS011;25686;51.908;10.418;2023-05-07T03:14:40;32.20;;;20.35;;
39994;SDS011;25686;51.908;10.418;2023-05-07T03:16:41;34.65;;;20.90;;
39994;SDS011;25686;51.908;10.418;2023-05-07T03:18:42;35.42;;;21.15;;
39994;SDS011;25686;51.908;10.418;2023-05-07T03:20:43;36.05;;;21.45;;
39994;SDS011;25686;51.908;10.418;2023-05-07T03:22:44;36.17;;;21.67;;
39994;SDS011;25686;51.908;10.418;2023-05-07T03:24:45;33.58;;;20.65;;
39994;SDS011;25686;51.908;10.418;2023-05-07T03:26:46;34.47;;;20.77;;
39994;SDS011;25686;51.908;10.418;2023-05-07T03:28:47;34.33;;;21.58;;
39994;SDS011;25686;51.908;10.418;2023-05-07T03:30:48;33.63;;;20.92;;
39994;SDS011;25686;51.908;10.418;2023-05-07T03:32:49;34.38;;;20.67;;
39994;SDS011;25686;51.908;10.418;2023-05-07T03:34:50;32.33;;;20.58;;
39994;SDS011;25686;51.908;10.418;2023-05-07T03:36:51;35.03;;;21.10;;
39994;SDS011;25686;51.908;10.418;2023-05-07T03:38:52;32.35;;;20.15;;
39994;SDS011;25686;51.908;10.418;2023-05-07T03:40:53;33.75;;;20.77;;
39994;SDS011;25686;51.908;10.418;2023-05-07T03:42:54;33.72;;;20.70;;
39994;SDS011;25686;51.908;10.418;2023-05-07T03:44:55;32.15;;;20.30;;
39994;SDS011;25686;51.908;10.418;2023-05-07T03:46:56;34.20;;;20.50;;
39994;SDS011;25686;51.908;10.418;2023-05-07T03:48:57;35.35;;;20.55;;
39994;SDS011;25686;51.908;10.418;2023-05-07T03:50:58;30.35;;;18.80;;
39994;SDS011;25686;51.908;10.418;2023-05-07T03:52:59;38.00;;;21.42;;
39994;SDS011;25686;51.908;10.418;2023-05-07T03:55:00;34.30;;;21.02;;
39994;SDS011;25686;51.908;10.418;2023-05-07T03:57:01;33.35;;;20.95;;
39994;SDS011;25686;51.908;10.418;2023-05-07T03:59:02;37.28;;;21.90;;
39994;SDS011;25686;51.908;10.418;2023-05-07T04:01:03;36.28;;;21.35;;
39994;SDS011;25686;51.908;10.418;2023-05-07T04:03:04;38.08;;;22.70;;
39994;SDS011;25686;51.908;10.418;2023-05-07T04:05:05;35.47;;;21.10;;
39994;SDS011;25686;51.908;10.418;2023-05-07T04:07:06;37.22;;;21.75;;
39994;SDS011;25686;51.908;10.418;2023-05-07T04:09:07;37.30;;;21.63;;
39994;SDS011;25686;51.908;10.418;2023-05-07T04:11:08;37.42;;;21.75;;
39994;SDS011;25686;51.908;10.418;2023-05-07T04:13:09;34.13;;;21.30;;
39994;SDS011;25686;51.908;10.418;2023-05-07T04:15:10;36.60;;;20.75;;
39994;SDS011;25686;51.908;10.418;2023-05-07T04:17:11;35.85;;;20.42;;
39994;SDS011;25686;51.908;10.418;2023-05-07T04:19:13;34.90;;;20.05;;
39994;SDS011;25686;51.908;10.418;2023-05-07T04:21:17;34.88;;;19.85;;
39994;SDS011;25686;51.908;10.418;2023-05-07T04:23:18;33.20;;;19.95;;
39994;SDS011;25686;51.908;10.418;2023-05-07T04:25:19;36.80;;;19.95;;
39994;SDS011;25686;51.908;10.418;2023-05-07T04:27:20;33.83;;;19.98;;
39994;SDS011;25686;51.908;10.418;2023-05-07T04:29:21;36.20;;;20.73;;
39994;SDS011;25686;51.908;10.418;2023-05-07T04:31:22;34.33;;;19.83;;
39994;SDS011;25686;51.908;10.418;2023-05-07T04:33:23;31.85;;;19.40;;
39994;SDS011;25686;51.908;10.418;2023-05-07T04:35:24;34.03;;;19.92;;
39994;SDS011;25686;51.908;10.418;2023-05-07T04:37:26;32.17;;;19.23;;
39994;SDS011;25686;51.908;10.418;2023-05-07T04:39:27;32.75;;;18.50;;
39994;SDS011;25686;51.908;10.418;2023-05-07T04:41:28;33.35;;;19.73;;
39994;SDS011;25686;51.908;10.418;2023-05-07T04:43:29;31.00;;;19.27;;
39994;SDS011;25686;51.908;10.418;2023-05-07T04:45:30;32.60;;;18.98;;
39994;SDS011;25686;51.908;10.418;2023-05-07T04:47:31;30.27;;;18.98;;
39994;SDS011;25686;51.908;10.418;2023-05-07T04:49:32;32.33;;;19.20;;
39994;SDS011;25686;51.908;10.418;2023-05-07T04:51:33;29.08;;;18.20;;
39994;SDS011;25686;51.908;10.418;2023-05-07T04:53:34;28.63;;;18.67;;
39994;SDS011;25686;51.908;10.418;2023-05-07T04:55:35;32.70;;;18.52;;
39994;SDS011;25686;51.908;10.418;2023-05-07T04:57:36;28.95;;;18.15;;
39994;SDS011;25686;51.908;10.418;2023-05-07T04:59:39;27.50;;;17.63;;
39994;SDS011;25686;51.908;10.418;2023-05-07T05:01:40;28.80;;;18.13;;
39994;SDS011;25686;51.908;10.418;2023-05-07T05:03:41;27.25;;;18.10;;
39994;SDS011;25686;51.908;10.418;2023-05-07T05:05:42;28.63;;;18.23;;
39994;SDS011;25686;51.908;10.418;2023-05-07T05:07:43;29.05;;;18.65;;
39994;SDS011;25686;51.908;10.418;2023-05-07T05:09:44;31.02;;;19.27;;
39994;SDS011;25686;51.908;10.418;2023-05-07T05:11:45;32.10;;;18.60;;
39994;SDS011;25686;51.908;10.418;2023-05-07T05:13:46;28.23;;;18.17;;
39994;SDS011;25686;51.908;10.418;2023-05-07T05:15:49;31.35;;;19.20;;
39994;SDS011;25686;51.908;10.418;2023-05-07T05:17:50;29.58;;;18.85;;
39994;SDS011;25686;51.908;10.418;2023-05-07T05:19:51;29.63;;;18.20;;
39994;SDS011;25686;51.908;10.418;2023-05-07T05:21:52;30.35;;;18.65;;
39994;SDS011;25686;51.908;10.418;2023-05-07T05:23:53;30.70;;;18.92;;
39994;SDS011;25686;51.908;10.418;2023-05-07T05:25:57;29.08;;;18.95;;
39994;SDS011;25686;51.908;10.418;2023-05-07T05:27:58;26.40;;;17.95;;
39994;SDS011;25686;51.908;10.418;2023-05-07T05:29:59;29.58;;;18.13;;
39994;SDS011;25686;51.908;10.418;2023-05-07T05:32:00;26.75;;;17.75;;
39994;SDS011;25686;51.908;10.418;2023-05-07T05:34:02;28.30;;;18.02;;
39994;SDS011;25686;51.908;10.418;2023-05-07T05:36:03;28.63;;;17.70;;
39994;SDS011;25686;51.908;10.418;2023-05-07T05:38:04;24.63;;;17.02;;
39994;SDS011;25686;51.908;10.418;2023-05-07T05:40:05;27.55;;;17.27;;
39994;SDS011;25686;51.908;10.418;2023-05-07T05:42:06;24.60;;;16.70;;
39994;SDS011;25686;51.908;10.418;2023-05-07T05:44:07;25.17;;;16.55;;
39994;SDS011;25686;51.908;10.418;2023-05-07T05:46:08;26.33;;;17.20;;
39994;SDS011;25686;51.908;10.418;2023-05-07T05:48:11;25.83;;;16.85;;
39994;SDS011;25686;51.908;10.418;2023-05-07T05:50:12;25.60;;;17.40;;
39994;SDS011;25686;51.908;10.418;2023-05-07T05:52:13;28.55;;;15.90;;
39994;SDS011;25686;51.908;10.418;2023-05-07T05:54:14;24.02;;;16.35;;
39994;SDS011;25686;51.908;10.418;2023-05-07T05:56:15;23.85;;;14.82;;
39994;SDS011;25686;51.908;10.418;2023-05-07T05:58:16;22.17;;;15.40;;
39994;SDS011;25686;51.908;10.418;2023-05-07T06:00:17;22.25;;;14.90;;
39994;SDS011;25686;51.908;10.418;2023-05-07T06:02:22;20.13;;;14.15;;
39994;SDS011;25686;51.908;10.418;2023-05-07T06:04:23;23.13;;;15.80;;
39994;SDS011;25686;51.908;10.418;2023-05-07T06:06:24;25.42;;;16.00;;
39994;SDS011;25686;51.908;10.418;2023-05-07T06:08:28;24.67;;;15.07;;
39994;SDS011;25686;51.908;10.418;2023-05-07T06:10:29;25.75;;;15.38;;
39994;SDS011;25686;51.908;10.418;2023-05-07T06:12:30;21.05;;;14.45;;
39994;SDS011;25686;51.908;10.418;2023-05-07T06:14:32;22.38;;;14.65;;
39994;SDS011;25686;51.908;10.418;2023-05-07T06:16:33;21.98;;;14.23;;
39994;SDS011;25686;51.908;10.418;2023-05-07T06:18:34;19.35;;;13.70;;
39994;SDS011;25686;51.908;10.418;2023-05-07T06:20:36;21.90;;;14.50;;
39994;SDS011;25686;51.908;10.418;2023-05-07T06:22:37;24.25;;;13.85;;
39994;SDS011;25686;51.908;10.418;2023-05-07T06:24:37;21.13;;;13.75;;
39994;SDS011;25686;51.908;10.418;2023-05-07T06:26:38;20.58;;;13.85;;
39994;SDS011;25686;51.908;10.418;2023-05-07T06:28:39;21.15;;;14.02;;
39994;SDS011;25686;51.908;10.418;2023-05-07T06:30:40;21.75;;;14.48;;
39994;SDS011;25686;51.908;10.418;2023-05-07T06:32:41;21.15;;;13.88;;
39994;SDS011;25686;51.908;10.418;2023-05-07T06:34:42;24.65;;;13.93;;
39994;SDS011;25686;51.908;10.418;2023-05-07T06:36:43;21.73;;;14.48;;
39994;SDS011;25686;51.908;10.418;2023-05-07T06:38:44;19.98;;;13.25;;
39994;SDS011;25686;51.908;10.418;2023-05-07T06:40:47;19.10;;;13.15;;
39994;SDS011;25686;51.908;10.418;2023-05-07T06:42:48;18.55;;;12.18;;
39994;SDS011;25686;51.908;10.418;2023-05-07T06:44:49;18.10;;;12.45;;
39994;SDS011;25686;51.908;10.418;2023-05-07T06:46:50;18.40;;;13.20;;
39994;SDS011;25686;51.908;10.418;2023-05-07T06:48:51;18.08;;;12.52;;
39994;SDS011;25686;51.908;10.418;2023-05-07T06:50:52;16.83;;;12.10;;
39994;SDS011;25686;51.908;10.418;2023-05-07T06:52:55;18.40;;;12.60;;
39994;SDS011;25686;51.908;10.418;2023-05-07T06:54:56;18.20;;;12.65;;
39994;SDS011;25686;51.908;10.418;2023-05-07T06:56:57;18.90;;;13.13;;
39994;SDS011;25686;51.908;10.418;2023-05-07T06:58:59;15.80;;;11.98;;
39994;SDS011;25686;51.908;10.418;2023-05-07T07:01:00;17.33;;;12.10;;
39994;SDS011;25686;51.908;10.418;2023-05-07T07:03:01;16.55;;;11.98;;
39994;SDS011;25686;51.908;10.418;2023-05-07T07:05:02;19.02;;;12.88;;
39994;SDS011;25686;51.908;10.418;2023-05-07T07:07:03;21.67;;;13.10;;
39994;SDS011;25686;51.908;10.418;2023-05-07T07:09:04;18.05;;;12.60;;
39994;SDS011;25686;51.908;10.418;2023-05-07T07:11:05;18.40;;;12.45;;
39994;SDS011;25686;51.908;10.418;2023-05-07T07:13:06;18.52;;;12.45;;
39994;SDS011;25686;51.908;10.418;2023-05-07T07:15:07;18.85;;;12.52;;
39994;SDS011;25686;51.908;10.418;2023-05-07T07:17:08;20.08;;;12.85;;
39994;SDS011;25686;51.908;10.418;2023-05-07T07:19:09;19.55;;;12.88;;
39994;SDS011;25686;51.908;10.418;2023-05-07T07:21:10;16.83;;;11.95;;
39994;SDS011;25686;51.908;10.418;2023-05-07T07:23:11;17.60;;;12.85;;
39994;SDS011;25686;51.908;10.418;2023-05-07T07:25:12;17.90;;;13.07;;
39994;SDS011;25686;51.908;10.418;2023-05-07T07:27:13;17.40;;;12.48;;
39994;SDS011;25686;51.908;10.418;2023-05-07T07:29:14;17.00;;;12.38;;
39994;SDS011;25686;51.908;10.418;2023-05-07T07:31:15;17.35;;;12.85;;
39994;SDS011;25686;51.908;10.418;2023-05-07T07:33:16;16.27;;;12.73;;
39994;SDS011;25686;51.908;10.418;2023-05-07T07:35:17;18.00;;;13.15;;
39994;SDS011;25686;51.908;10.418;2023-05-07T07:37:18;20.90;;;13.40;;
39994;SDS011;25686;51.908;10.418;2023-05-07T07:39:19;17.08;;;12.45;;
39994;SDS011;25686;51.908;10.418;2023-05-07T07:41:20;18.85;;;13.00;;
39994;SDS011;25686;51.908;10.418;2023-05-07T07:43:21;19.05;;;13.73;;
39994;SDS011;25686;51.908;10.418;2023-05-07T07:45:22;19.35;;;13.55;;
39994;SDS011;25686;51.908;10.418;2023-05-07T07:47:23;18.27;;;12.88;;
39994;SDS011;25686;51.908;10.418;2023-05-07T07:49:24;17.35;;;13.00;;
39994;SDS011;25686;51.908;10.418;2023-05-07T07:51:25;17.40;;;12.75;;
39994;SDS011;25686;51.908;10.418;2023-05-07T07:53:26;17.35;;;12.88;;
39994;SDS011;25686;51.908;10.418;2023-05-07T07:55:27;19.20;;;13.13;;
39994;SDS011;25686;51.908;10.418;2023-05-07T07:57:28;19.67;;;14.23;;
39994;SDS011;25686;51.908;10.418;2023-05-07T07:59:29;19.00;;;14.05;;
39994;SDS011;25686;51.908;10.418;2023-05-07T08:01:30;17.17;;;12.90;;
39994;SDS011;25686;51.908;10.418;2023-05-07T08:03:31;18.25;;;13.38;;
39994;SDS011;25686;51.908;10.418;2023-05-07T08:05:32;18.35;;;13.40;;
39994;SDS011;25686;51.908;10.418;2023-05-07T08:07:33;17.25;;;12.93;;
39994;SDS011;25686;51.908;10.418;2023-05-07T08:09:34;17.63;;;13.32;;
39994;SDS011;25686;51.908;10.418;2023-05-07T08:11:36;20.05;;;13.77;;
39994;SDS011;25686;51.908;10.418;2023-05-07T08:13:36;16.13;;;12.80;;
39994;SDS011;25686;51.908;10.418;2023-05-07T08:15:38;19.77;;;13.98;;
39994;SDS011;25686;51.908;10.418;2023-05-07T08:17:39;18.15;;;13.85;;
39994;SDS011;25686;51.908;10.418;2023-05-07T08:19:40;18.20;;;13.18;;
39994;SDS011;25686;51.908;10.418;2023-05-07T08:21:42;19.60;;;14.07;;
39994;SDS011;25686;51.908;10.418;2023-05-07T08:23:43;20.38;;;13.65;;
39994;SDS011;25686;51.908;10.418;2023-05-07T08:25:44;18.58;;;13.32;;
39994;SDS011;25686;51.908;10.418;2023-05-07T08:27:45;17.02;;;12.70;;
39994;SDS011;25686;51.908;10.418;2023-05-07T08:29:46;16.58;;;12.43;;
39994;SDS011;25686;51.908;10.418;2023-05-07T08:31:48;17.65;;;13.13;;
39994;SDS011;25686;51.908;10.418;2023-05-07T08:33:49;16.98;;;12.48;;
39994;SDS011;25686;51.908;10.418;2023-05-07T08:35:50;17.17;;;13.02;;
39994;SDS011;25686;51.908;10.418;2023-05-07T08:37:51;15.27;;;12.32;;
39994;SDS011;25686;51.908;10.418;2023-05-07T08:39:52;18.83;;;13.75;;
39994;SDS011;25686;51.908;10.418;2023-05-07T08:41:54;18.85;;;13.80;;
39994;SDS011;25686;51.908;10.418;2023-05-07T08:43:57;17.58;;;13.43;;
39994;SDS011;25686;51.908;10.418;2023-05-07T08:46:00;19.42;;;13.68;;
39994;SDS011;25686;51.908;10.418;2023-05-07T08:48:05;15.95;;;12.45;;
39994;SDS011;25686;51.908;10.418;2023-05-07T08:50:09;18.08;;;13.80;;
39994;SDS011;25686;51.908;10.418;2023-05-07T08:52:11;18.27;;;13.57;;
39994;SDS011;25686;51.908;10.418;2023-05-07T08:54:15;20.17;;;14.15;;
39994;SDS011;25686;51.908;10.418;2023-05-07T08:56:17;17.83;;;13.13;;
39994;SDS011;25686;51.908;10.418;2023-05-07T08:58:20;17.80;;;13.20;;
39994;SDS011;25686;51.908;10.418;2023-05-07T09:00:21;20.70;;;13.30;;
39994;SDS011;25686;51.908;10.418;2023-05-07T09:02:22;16.52;;;12.85;;
39994;SDS011;25686;51.908;10.418;2023-05-07T09:04:23;16.83;;;12.40;;
39994;SDS011;25686;51.908;10.418;2023-05-07T09:06:24;17.85;;;13.50;;
39994;SDS011;25686;51.908;10.418;2023-05-07T09:08:26;16.25;;;12.63;;
39994;SDS011;25686;51.908;10.418;2023-05-07T09:10:28;18.35;;;13.45;;
39994;SDS011;25686;51.908;10.418;2023-05-07T09:12:29;18.20;;;13.32;;
39994;SDS011;25686;51.908;10.418;2023-05-07T09:14:30;19.15;;;13.70;;
39994;SDS011;25686;51.908;10.418;2023-05-07T09:16:31;19.00;;;13.63;;
39994;SDS011;25686;51.908;10.418;2023-05-07T09:18:32;18.75;;;13.77;;
39994;SDS011;25686;51.908;10.418;2023-05-07T09:20:33;20.58;;;14.32;;
39994;SDS011;25686;51.908;10.418;2023-05-07T09:22:38;20.20;;;14.32;;
39994;SDS011;25686;51.908;10.418;2023-05-07T09:24:39;18.13;;;13.93;;
39994;SDS011;25686;51.908;10.418;2023-05-07T09:26:40;18.45;;;14.18;;
39994;SDS011;25686;51.908;10.418;2023-05-07T09:28:41;19.60;;;14.63;;
39994;SDS011;25686;51.908;10.418;2023-05-07T09:30:42;16.00;;;13.13;;
39994;SDS011;25686;51.908;10.418;2023-05-07T09:32:43;21.15;;;14.32;;
39994;SDS011;25686;51.908;10.418;2023-05-07T09:34:44;17.95;;;14.23;;
39994;SDS011;25686;51.908;10.418;2023-05-07T09:36:47;18.95;;;14.43;;
39994;SDS011;25686;51.908;10.418;2023-05-07T09:38:48;19.25;;;14.75;;
39994;SDS011;25686;51.908;10.418;2023-05-07T09:41:11;19.88;;;14.60;;
39994;SDS011;25686;51.908;10.418;2023-05-07T09:43:12;18.73;;;13.90;;
39994;SDS011;25686;51.908;10.418;2023-05-07T09:45:14;19.50;;;14.93;;
39994;SDS011;25686;51.908;10.418;2023-05-07T09:47:17;21.23;;;14.70;;
39994;SDS011;25686;51.908;10.418;2023-05-07T09:49:22;19.55;;;14.10;;
39994;SDS011;25686;51.908;10.418;2023-05-07T09:51:25;17.35;;;14.02;;
39994;SDS011;25686;51.908;10.418;2023-05-07T09:53:29;19.33;;;14.93;;
39994;SDS011;25686;51.908;10.418;2023-05-07T09:55:31;19.35;;;14.50;;
39994;SDS011;25686;51.908;10.418;2023-05-07T09:57:32;17.33;;;14.00;;
39994;SDS011;25686;51.908;10.418;2023-05-07T09:59:33;18.63;;;15.38;;
39994;SDS011;25686;51.908;10.418;2023-05-07T10:01:35;20.63;;;15.23;;
39994;SDS011;25686;51.908;10.418;2023-05-07T10:03:37;20.77;;;15.85;;
39994;SDS011;25686;51.908;10.418;2023-05-07T10:05:39;18.70;;;14.77;;
39994;SDS011;25686;51.908;10.418;2023-05-07T10:07:41;18.95;;;14.15;;
39994;SDS011;25686;51.908;10.418;2023-05-07T10:09:42;18.92;;;14.70;;
39994;SDS011;25686;51.908;10.418;2023-05-07T10:11:44;18.17;;;14.27;;
39994;SDS011;25686;51.908;10.418;2023-05-07T10:13:45;16.20;;;13.60;;
39994;SDS011;25686;51.908;10.418;2023-05-07T10:15:47;17.90;;;13.82;;
39994;SDS011;25686;51.908;10.418;2023-05-07T10:17:48;18.02;;;14.30;;
39994;SDS011;25686;51.908;10.418;2023-05-07T10:19:50;17.02;;;13.43;;
39994;SDS011;25686;51.908;10.418;2023-05-07T10:21:55;17.90;;;14.20;;
39994;SDS011;25686;51.908;10.418;2023-05-07T10:24:00;17.60;;;14.27;;
39994;SDS011;25686;51.908;10.418;2023-05-07T10:26:06;15.95;;;13.32;;
39994;SDS011;25686;51.908;10.418;2023-05-07T10:28:08;19.23;;;14.23;;
39994;SDS011;25686;51.908;10.418;2023-05-07T10:30:21;18.08;;;13.48;;
39994;SDS011;25686;51.908;10.418;2023-05-07T10:34:37;17.63;;;12.85;;
39994;SDS011;25686;51.908;10.418;2023-05-07T10:36:39;16.58;;;12.85;;
39994;SDS011;25686;51.908;10.418;2023-05-07T10:38:40;15.63;;;12.63;;
39994;SDS011;25686;51.908;10.418;2023-05-07T10:40:41;15.73;;;12.25;;
39994;SDS011;25686;51.908;10.418;2023-05-07T10:44:56;17.25;;;12.18;;
39994;SDS011;25686;51.908;10.418;2023-05-07T10:47:03;15.23;;;11.70;;
39994;SDS011;25686;51.908;10.418;2023-05-07T10:51:19;14.77;;;11.82;;
39994;SDS011;25686;51.908;10.418;2023-05-07T10:53:23;17.23;;;11.93;;
39994;SDS011;25686;51.908;10.418;2023-05-07T10:55:25;14.82;;;12.25;;
39994;SDS011;25686;51.908;10.418;2023-05-07T10:59:35;14.07;;;11.57;;
39994;SDS011;25686;51.908;10.418;2023-05-07T11:01:55;14.27;;;11.88;;
39994;SDS011;25686;51.908;10.418;2023-05-07T11:04:13;15.27;;;11.23;;
39994;SDS011;25686;51.908;10.418;2023-05-07T11:06:15;13.07;;;10.85;;
39994;SDS011;25686;51.908;10.418;2023-05-07T11:08:16;14.63;;;10.82;;
39994;SDS011;25686;51.908;10.418;2023-05-07T11:10:17;14.52;;;11.43;;
39994;SDS011;25686;51.908;10.418;2023-05-07T11:14:43;14.70;;;10.20;;
39994;SDS011;25686;51.908;10.418;2023-05-07T11:16:47;13.35;;;10.98;;
39994;SDS011;25686;51.908;10.418;2023-05-07T11:18:52;13.13;;;10.55;;
39994;SDS011;25686;51.908;10.418;2023-05-07T11:20:54;12.23;;;10.63;;
39994;SDS011;25686;51.908;10.418;2023-05-07T11:22:55;13.43;;;9.90;;
39994;SDS011;25686;51.908;10.418;2023-05-07T11:24:58;11.68;;;9.30;;
39994;SDS011;25686;51.908;10.418;2023-05-07T11:26:59;14.73;;;11.43;;
39994;SDS011;25686;51.908;10.418;2023-05-07T11:29:01;10.52;;;9.43;;
39994;SDS011;25686;51.908;10.418;2023-05-07T11:31:02;12.35;;;9.20;;
39994;SDS011;25686;51.908;10.418;2023-05-07T11:33:03;10.90;;;9.80;;
39994;SDS011;25686;51.908;10.418;2023-05-07T11:35:05;11.18;;;9.70;;
39994;SDS011;25686;51.908;10.418;2023-05-07T11:37:07;11.77;;;9.52;;
39994;SDS011;25686;51.908;10.418;2023-05-07T11:39:24;12.18;;;9.00;;
39994;SDS011;25686;51.908;10.418;2023-05-07T11:41:35;12.80;;;10.55;;
39994;SDS011;25686;51.908;10.418;2023-05-07T11:43:36;11.88;;;9.02;;
39994;SDS011;25686;51.908;10.418;2023-05-07T11:45:39;11.10;;;8.57;;
39994;SDS011;25686;51.908;10.418;2023-05-07T11:47:41;11.10;;;8.38;;
39994;SDS011;25686;51.908;10.418;2023-05-07T11:49:42;9.30;;;8.40;;
39994;SDS011;25686;51.908;10.418;2023-05-07T11:51:44;9.32;;;8.27;;